»·PEaware :: N160BZ KSBP-KBFL

N160BZ :: KSBP-KBFL

FLIGHT INFORMATION

Flight Status: Arrived
Operator: Privately registered:
United States
More flights under this callsign
Pilot: Martin C. (20247)
Aircraft: CESSNA 172 SKYHAWK
(C172)
More flights by this aircraft type
Origin: KSBP San Luis Co Regl
United States
Destination: KBFL Meadows
United States
More flights between these airports :: More routes between these airports
Route: +
File this flight plan on PilotEdge
Remarks:
Altitude:
(Current/Filed)
5,500ft
Speed:
(Current/Filed)
0kts
Departed: 24-Sep-18 03:10 PM
Arrived: 24-Sep-18 03:54 PM
Distance/Time
Traveled:
78nm/0:44
Distance/Time
To Go:
Arrived

Flight Plot

Page will automatically refresh every two minutes.


Map Options




Map Legend


Flown Route
Filed Route
Departure Airport
Arrival Airport
Navaid (VOR, NDB)
Fix

Horizontal Profiles

Position Reports

Time Latitude Longitude Heading Altitude Ground
Speed
24-Sep-18 15:04 35.238487 -120.640032 304 190ft 0kts
24-Sep-18 15:05 35.238487 -120.640032 304 190ft 0kts
24-Sep-18 15:06 35.238487 -120.640032 304 190ft 0kts
24-Sep-18 15:07 35.237633 -120.639897 96 191ft 2kts
24-Sep-18 15:08 35.235363 -120.635600 126 208ft 12kts
24-Sep-18 15:09 35.233206 -120.632390 212 212ft 0kts
24-Sep-18 15:10 35.233205 -120.632390 212 212ft 0kts
24-Sep-18 15:11 35.233026 -120.632541 215 212ft 9kts
24-Sep-18 15:12 35.241507 -120.647640 300 748ft 70kts
24-Sep-18 15:13 35.260471 -120.646657 72 1426ft 104kts
24-Sep-18 15:14 35.265540 -120.611973 80 2271ft 103kts
24-Sep-18 15:15 35.269697 -120.578351 80 3162ft 99kts
24-Sep-18 15:16 35.273650 -120.544778 80 3976ft 103kts
24-Sep-18 15:17 35.277701 -120.509265 80 4682ft 106kts
24-Sep-18 15:18 35.281624 -120.474488 79 5380ft 97kts
24-Sep-18 15:19 35.285769 -120.437460 79 5527ft 121kts
24-Sep-18 15:20 35.290264 -120.397657 79 6030ft 116kts
24-Sep-18 15:21 35.294644 -120.358922 79 6533ft 114kts
24-Sep-18 15:22 35.298914 -120.321026 79 7030ft 112kts
24-Sep-18 15:23 35.303147 -120.283463 79 7490ft 113kts
24-Sep-18 15:24 35.307583 -120.243118 80 7502ft 120kts
24-Sep-18 15:25 35.312055 -120.202487 79 7564ft 113kts
24-Sep-18 15:26 35.316363 -120.163788 79 7605ft 117kts
24-Sep-18 15:27 35.320718 -120.124445 79 7606ft 118kts
24-Sep-18 15:28 35.325149 -120.084315 79 7607ft 118kts
24-Sep-18 15:29 35.329521 -120.044640 79 7608ft 118kts
24-Sep-18 15:30 35.333886 -120.004852 79 7609ft 117kts
24-Sep-18 15:31 35.338251 -119.965022 79 7600ft 117kts
24-Sep-18 15:32 35.342560 -119.925543 79 7587ft 116kts
24-Sep-18 15:33 35.346826 -119.886363 79 7574ft 115kts
24-Sep-18 15:34 35.350947 -119.848383 80 7561ft 115kts
24-Sep-18 15:35 35.355149 -119.809560 80 7547ft 114kts
24-Sep-18 15:36 35.359294 -119.771115 80 7533ft 114kts
24-Sep-18 15:37 35.363432 -119.732602 80 7528ft 113kts
24-Sep-18 15:38 35.367530 -119.694368 80 7529ft 113kts
24-Sep-18 15:39 35.371635 -119.655963 80 7530ft 114kts
24-Sep-18 15:40 35.375717 -119.617269 80 7532ft 114kts
24-Sep-18 15:41 35.379844 -119.578370 79 7533ft 115kts
24-Sep-18 15:42 35.383975 -119.539342 79 7534ft 116kts
24-Sep-18 15:43 35.388118 -119.500058 79 7535ft 116kts
24-Sep-18 15:44 35.392373 -119.459429 80 7262ft 125kts
24-Sep-18 15:45 35.396751 -119.417414 80 6763ft 123kts
24-Sep-18 15:46 35.401092 -119.375870 79 6266ft 123kts
24-Sep-18 15:47 35.405449 -119.333944 80 5648ft 128kts
24-Sep-18 15:48 35.409963 -119.290354 80 4848ft 130kts
24-Sep-18 15:49 35.414521 -119.246264 80 4045ft 130kts
24-Sep-18 15:50 35.418747 -119.205113 79 3244ft 116kts
24-Sep-18 15:51 35.422794 -119.165838 79 2439ft 116kts
24-Sep-18 15:52 35.426725 -119.127264 80 1635ft 108kts
24-Sep-18 15:53 35.429815 -119.093793 91 1478ft 92kts
24-Sep-18 15:54 35.416781 -119.069970 131 1470ft 79kts
24-Sep-18 15:55 35.420023 -119.048390 44 756ft 64kts
24-Sep-18 15:56 35.431432 -119.056831 316 478ft 35kts
24-Sep-18 15:57 35.434045 -119.060984 201 481ft 7kts
24-Sep-18 15:58 35.432163 -119.059672 224 478ft 0kts
24-Sep-18 15:59 35.432163 -119.059672 224 478ft 0kts
24-Sep-18 16:00 35.432163 -119.059672 224 478ft 0kts

Navigation Log

Ident Type
Flight plan parsing failed, navigation log unavailable